createdAt,value
2022-12-23T00:00:43.566Z,2.58
2022-12-23T00:03:10.290Z,2.23
2022-12-23T00:05:40.438Z,2.20
2022-12-23T00:08:08.090Z,1.73
2022-12-23T00:10:37.969Z,2.63
2022-12-23T00:13:23.142Z,1.30
2022-12-23T00:15:49.750Z,1.33
2022-12-23T00:18:16.320Z,1.95
2022-12-23T00:20:42.928Z,1.47
2022-12-23T00:23:09.595Z,2.13
2022-12-23T00:25:41.946Z,1.20
2022-12-23T00:28:15.799Z,1.70
2022-12-23T00:30:46.195Z,1.40
2022-12-23T00:33:14.312Z,2.13
2022-12-23T00:35:41.495Z,2.03
2022-12-23T00:38:08.129Z,2.53
2022-12-23T00:41:13.223Z,2.53
2022-12-23T00:43:39.792Z,2.85
2022-12-23T00:46:07.264Z,2.13
2022-12-23T00:48:52.388Z,1.67
2022-12-23T00:51:18.972Z,1.27
2022-12-23T00:53:45.506Z,0.77
2022-12-23T00:56:12.082Z,2.00
2022-12-23T00:58:38.905Z,2.03
2022-12-23T01:01:24.729Z,1.00
2022-12-23T01:04:09.953Z,2.57
2022-12-23T01:06:36.532Z,0.77
2022-12-23T01:09:03.106Z,0.73
2022-12-23T01:11:29.698Z,0.73
2022-12-23T01:13:57.842Z,0.80
2022-12-23T01:16:24.622Z,0.53
2022-12-23T01:18:51.216Z,0.70
2022-12-23T01:21:17.787Z,0.63
2022-12-23T01:23:44.366Z,0.63
2022-12-23T01:26:11.628Z,0.50
2022-12-23T01:28:38.402Z,0.70
2022-12-23T01:31:07.901Z,1.43
2022-12-23T01:33:34.499Z,1.02
2022-12-23T01:36:06.908Z,0.47
2022-12-23T01:38:34.530Z,0.30
2022-12-23T01:41:01.216Z,0.40
2022-12-23T01:43:49.033Z,0.60
2022-12-23T01:46:16.217Z,0.30
2022-12-23T01:48:48.777Z,0.50
2022-12-23T01:51:24.718Z,0.83
2022-12-23T01:53:55.720Z,0.60
2022-12-23T01:56:28.967Z,0.60
2022-12-23T01:59:00.640Z,0.53
2022-12-23T02:01:47.746Z,0.60
2022-12-23T02:04:19.439Z,0.28
2022-12-23T02:07:07.719Z,0.45
2022-12-23T02:09:39.964Z,1.00
2022-12-23T02:12:28.541Z,0.77
2022-12-23T02:15:38.228Z,0.60
2022-12-23T02:18:07.663Z,0.40
2022-12-23T02:21:16.338Z,0.53
2022-12-23T02:23:55.033Z,0.40
2022-12-23T02:27:09.672Z,0.47
2022-12-23T02:30:15.335Z,1.80
2022-12-23T02:32:47.821Z,0.50
2022-12-23T02:35:38.086Z,0.50
2022-12-23T02:38:04.611Z,1.13
2022-12-23T02:40:51.589Z,0.40
2022-12-23T02:43:41.627Z,0.68
2022-12-23T02:46:19.742Z,1.00
2022-12-23T02:49:01.260Z,0.67
2022-12-23T02:51:34.883Z,0.53
2022-12-23T02:54:06.404Z,2.13
2022-12-23T02:56:35.258Z,1.17
2022-12-23T02:59:20.347Z,0.63
2022-12-23T03:01:48.363Z,0.80
2022-12-23T03:04:15.413Z,1.30
2022-12-23T03:06:45.850Z,1.37
2022-12-23T03:09:36.381Z,0.80
2022-12-23T03:12:35.159Z,1.13
2022-12-23T03:15:10.472Z,2.03
2022-12-23T03:18:10.493Z,1.60
2022-12-23T03:20:49.111Z,2.50
2022-12-23T03:23:39.458Z,0.93
2022-12-23T03:26:16.708Z,1.37
2022-12-23T03:28:53.450Z,0.60
2022-12-23T03:31:26.381Z,1.45
2022-12-23T03:34:01.978Z,1.77
2022-12-23T03:36:40.047Z,4.17
2022-12-23T03:39:13.374Z,1.40
2022-12-23T03:41:45.521Z,0.90
2022-12-23T03:44:28.358Z,2.33
2022-12-23T03:47:06.635Z,1.37
2022-12-23T03:49:42.837Z,2.53
2022-12-23T03:52:21.210Z,2.40
2022-12-23T03:54:54.433Z,1.73
2022-12-23T03:57:28.575Z,2.67
2022-12-23T03:59:55.452Z,2.40
2022-12-23T04:02:33.352Z,1.63
2022-12-23T04:05:18.935Z,1.20
2022-12-23T04:08:09.729Z,2.07
2022-12-23T04:10:37.156Z,1.43
2022-12-23T04:13:04.235Z,1.60
2022-12-23T04:15:30.911Z,1.97
2022-12-23T04:17:58.632Z,1.30
2022-12-23T04:20:25.796Z,1.03
2022-12-23T04:22:52.390Z,1.30
2022-12-23T04:25:20.574Z,0.80
2022-12-23T04:27:47.182Z,1.00
2022-12-23T04:30:14.089Z,2.37
2022-12-23T04:32:41.640Z,1.37
2022-12-23T04:35:09.203Z,2.73
2022-12-23T04:37:35.822Z,1.70
2022-12-23T04:40:02.946Z,0.90
2022-12-23T04:42:29.575Z,1.20
2022-12-23T04:44:56.252Z,1.20
2022-12-23T04:47:23.028Z,1.60
2022-12-23T04:49:49.620Z,1.50
2022-12-23T04:52:16.210Z,1.67
2022-12-23T04:54:46.265Z,1.57
2022-12-23T04:57:14.092Z,1.47
2022-12-23T04:59:40.667Z,2.07
2022-12-23T05:02:08.138Z,1.40
2022-12-23T05:04:35.246Z,1.20
2022-12-23T05:07:01.934Z,2.07
2022-12-23T05:09:28.536Z,1.40
2022-12-23T05:11:55.117Z,1.20
2022-12-23T05:14:21.746Z,1.20
2022-12-23T05:16:48.386Z,2.30
2022-12-23T05:19:15.109Z,0.90
2022-12-23T05:21:41.892Z,1.60
2022-12-23T05:24:08.574Z,1.80
2022-12-23T05:26:35.155Z,1.93
2022-12-23T05:29:01.699Z,1.20
2022-12-23T05:31:28.408Z,1.63
2022-12-23T05:33:56.044Z,1.10
2022-12-23T05:36:24.989Z,1.50
2022-12-23T05:38:51.589Z,1.23
2022-12-23T05:41:18.184Z,1.27
2022-12-23T05:43:44.745Z,1.40
2022-12-23T05:46:11.381Z,1.20
2022-12-23T05:48:38.003Z,1.20
2022-12-23T05:51:04.724Z,2.00
2022-12-23T05:53:31.497Z,1.27
2022-12-23T05:55:58.112Z,1.67
2022-12-23T05:58:25.159Z,1.83
2022-12-23T06:00:51.734Z,1.30
2022-12-23T06:03:18.643Z,1.33
2022-12-23T06:05:49.481Z,1.95
2022-12-23T06:08:16.039Z,2.60
2022-12-23T06:10:42.594Z,2.83
2022-12-23T06:13:09.370Z,2.77
2022-12-23T06:15:35.986Z,1.70
2022-12-23T06:18:02.562Z,1.70
2022-12-23T06:20:29.122Z,1.52
2022-12-23T06:22:55.854Z,3.63
2022-12-23T06:25:22.454Z,2.67
2022-12-23T06:27:49.131Z,5.18
2022-12-23T06:30:15.768Z,1.90
2022-12-23T06:32:42.441Z,2.67
2022-12-23T06:35:10.113Z,2.50
2022-12-23T06:37:36.701Z,3.15
2022-12-23T06:40:04.028Z,3.00
2022-12-23T06:42:30.681Z,3.50
2022-12-23T06:44:57.234Z,2.37
2022-12-23T06:47:23.830Z,1.70
2022-12-23T06:49:50.369Z,2.85
2022-12-23T06:52:17.152Z,1.77
2022-12-23T06:54:43.732Z,2.63
2022-12-23T06:57:10.287Z,2.88
2022-12-23T06:59:36.811Z,2.03
2022-12-23T07:02:03.986Z,2.53
2022-12-23T07:04:30.715Z,3.67
2022-12-23T07:06:57.880Z,2.57
2022-12-23T07:09:24.728Z,2.10
2022-12-23T07:11:51.299Z,2.40
2022-12-23T07:14:17.878Z,3.00
2022-12-23T07:16:45.267Z,1.80
2022-12-23T07:19:11.984Z,3.73
2022-12-23T07:21:38.788Z,2.17
2022-12-23T07:24:06.106Z,2.43
2022-12-23T07:26:32.717Z,3.35
2022-12-23T07:28:59.296Z,2.93
2022-12-23T07:31:25.901Z,2.60
2022-12-23T07:33:52.491Z,3.08
2022-12-23T07:36:19.102Z,4.00
2022-12-23T07:38:49.464Z,2.78
2022-12-23T07:41:16.058Z,3.70
2022-12-23T07:43:42.650Z,3.38
2022-12-23T07:46:09.795Z,4.28
2022-12-23T07:48:36.810Z,3.70
2022-12-23T07:51:04.611Z,3.53
2022-12-23T07:53:31.291Z,4.65
2022-12-23T07:55:57.943Z,4.80
2022-12-23T07:58:24.915Z,8.00
2022-12-23T08:00:58.719Z,5.32
2022-12-23T08:03:25.803Z,4.13
2022-12-23T08:06:07.931Z,2.30
2022-12-23T08:08:35.682Z,2.50
2022-12-23T08:11:07.685Z,2.40
2022-12-23T08:13:36.733Z,2.90
2022-12-23T08:16:05.294Z,2.23
2022-12-23T08:18:34.526Z,2.47
2022-12-23T08:21:04.211Z,2.33
2022-12-23T08:23:31.790Z,1.70
2022-12-23T08:26:22.191Z,2.67
2022-12-23T08:28:53.362Z,1.88
2022-12-23T08:31:23.575Z,1.90
2022-12-23T08:33:52.692Z,3.00
2022-12-23T08:36:25.231Z,3.58
2022-12-23T08:38:53.593Z,1.48
2022-12-23T08:41:24.636Z,1.30
2022-12-23T08:43:54.531Z,2.95
2022-12-23T08:46:21.283Z,2.50
2022-12-23T08:48:49.699Z,2.05
2022-12-23T08:51:18.202Z,2.35
2022-12-23T08:53:45.506Z,2.88
2022-12-23T08:56:18.155Z,2.00
2022-12-23T08:58:46.785Z,2.53
2022-12-23T09:01:16.129Z,2.45
2022-12-23T09:03:44.132Z,3.05
2022-12-23T09:06:29.088Z,1.40
2022-12-23T09:08:56.508Z,1.65
2022-12-23T09:11:26.044Z,2.58
2022-12-23T09:13:53.735Z,2.35
2022-12-23T09:16:21.084Z,3.40
2022-12-23T09:18:47.819Z,1.95
2022-12-23T09:21:20.066Z,1.73
2022-12-23T09:23:46.920Z,1.25
2022-12-23T09:26:22.921Z,3.15
2022-12-23T09:28:49.636Z,1.65
2022-12-23T09:31:16.685Z,3.72
2022-12-23T09:33:47.865Z,2.42
2022-12-23T09:36:14.989Z,2.95
2022-12-23T09:38:41.766Z,2.17
2022-12-23T09:41:51.652Z,3.22
2022-12-23T09:44:48.906Z,4.20
2022-12-23T09:47:22.564Z,2.35
2022-12-23T09:49:55.320Z,4.28
2022-12-23T09:52:42.896Z,2.60
2022-12-23T09:55:12.064Z,3.03
2022-12-23T09:58:01.052Z,3.03
2022-12-23T10:00:39.613Z,3.65
2022-12-23T10:03:15.372Z,2.85
2022-12-23T10:06:07.366Z,2.53
2022-12-23T10:08:41.907Z,2.13
2022-12-23T10:11:20.613Z,2.17
2022-12-23T10:13:51.138Z,2.63
2022-12-23T10:16:25.742Z,3.38
2022-12-23T10:18:55.887Z,3.55
2022-12-23T10:21:47.877Z,4.32
2022-12-23T10:24:35.822Z,4.53
2022-12-23T10:27:11.346Z,3.67
2022-12-23T10:29:37.998Z,5.30
2022-12-23T10:32:46.085Z,4.45
2022-12-23T10:35:21.616Z,3.17
2022-12-23T10:37:57.505Z,3.05
2022-12-23T10:40:39.675Z,6.63
2022-12-23T10:43:26.713Z,4.85
2022-12-23T10:45:59.737Z,4.28
2022-12-23T10:48:26.266Z,4.75
2022-12-23T10:51:03.874Z,4.13
2022-12-23T10:53:46.862Z,3.53
2022-12-23T10:56:15.110Z,3.03
2022-12-23T10:58:45.070Z,5.82
2022-12-23T11:01:25.716Z,5.15
2022-12-23T11:04:07.936Z,8.95
2022-12-23T11:06:40.910Z,6.15
2022-12-23T11:09:19.144Z,3.80
2022-12-23T11:12:00.771Z,4.53
2022-12-23T11:14:42.160Z,4.10
2022-12-23T11:17:25.772Z,4.45
2022-12-23T11:20:10.764Z,4.22
2022-12-23T11:22:49.117Z,3.80
2022-12-23T11:25:41.613Z,1.75
2022-12-23T11:28:08.140Z,1.67
2022-12-23T11:30:52.030Z,1.67
2022-12-23T11:33:34.300Z,1.80
2022-12-23T11:36:02.717Z,1.77
2022-12-23T11:38:29.820Z,1.17
2022-12-23T11:40:56.891Z,1.17
2022-12-23T11:43:26.141Z,2.60
2022-12-23T11:46:13.995Z,1.05
2022-12-23T11:48:40.606Z,1.02
2022-12-23T11:51:07.205Z,1.50
2022-12-23T11:53:35.001Z,1.20
2022-12-23T11:56:06.354Z,2.10
2022-12-23T11:58:45.685Z,1.55
2022-12-23T12:01:20.232Z,1.05
2022-12-23T12:03:54.752Z,1.13
2022-12-23T12:06:22.564Z,1.00
2022-12-23T12:08:52.638Z,1.20
2022-12-23T12:11:25.725Z,1.23
2022-12-23T12:14:00.527Z,1.17
2022-12-23T12:16:42.150Z,1.00
2022-12-23T12:19:19.205Z,1.90
2022-12-23T12:22:02.378Z,0.80
2022-12-23T12:24:44.097Z,1.00
2022-12-23T12:27:11.559Z,0.95
2022-12-23T12:29:49.226Z,1.00
2022-12-23T12:32:33.497Z,1.02
2022-12-23T12:35:06.969Z,1.30
2022-12-23T12:37:42.112Z,1.13
2022-12-23T12:40:17.649Z,1.88
2022-12-23T12:43:31.469Z,9.70
2022-12-23T12:46:16.619Z,3.95
2022-12-23T12:48:55.721Z,3.50
2022-12-23T12:51:40.945Z,2.85
2022-12-23T12:54:29.248Z,4.00
2022-12-23T12:56:57.499Z,3.13
2022-12-23T12:59:31.215Z,9.07
2022-12-23T13:02:22.224Z,4.05
2022-12-23T13:05:14.792Z,7.97
2022-12-23T13:08:03.943Z,3.58
2022-12-23T13:10:48.398Z,4.07
2022-12-23T13:13:39.436Z,2.70
2022-12-23T13:16:18.215Z,4.88
2022-12-23T13:19:03.068Z,3.97
2022-12-23T13:21:53.908Z,3.58
2022-12-23T13:24:39.183Z,1.52
2022-12-23T13:27:18.891Z,2.30
2022-12-23T13:30:01.524Z,4.57
2022-12-23T13:32:53.609Z,1.50
2022-12-23T13:35:40.953Z,3.08
2022-12-23T13:38:13.532Z,1.10
2022-12-23T13:40:58.099Z,2.33
2022-12-23T13:43:29.695Z,2.83
2022-12-23T13:46:01.939Z,2.30
2022-12-23T13:48:50.014Z,3.78
2022-12-23T13:51:43.866Z,2.90
2022-12-23T13:54:25.400Z,2.00
2022-12-23T13:57:08.554Z,2.40
2022-12-23T13:59:41.498Z,1.10
2022-12-23T14:02:36.346Z,1.20
2022-12-23T14:05:05.624Z,2.45
2022-12-23T14:07:33.909Z,4.25
2022-12-23T14:10:12.846Z,7.40
2022-12-23T14:12:42.532Z,3.20
2022-12-23T14:15:27.459Z,4.28
2022-12-23T14:18:31.310Z,2.30
2022-12-23T14:21:18.968Z,1.67
2022-12-23T14:24:25.720Z,1.98
2022-12-23T14:27:17.009Z,1.90
2022-12-23T14:30:08.468Z,1.10
2022-12-23T14:32:49.426Z,0.70
2022-12-23T14:35:24.024Z,1.15
2022-12-23T14:38:21.204Z,0.90
2022-12-23T14:41:24.468Z,1.00
2022-12-23T14:43:56.122Z,0.80
2022-12-23T14:46:35.217Z,1.55
2022-12-23T14:49:29.954Z,0.60
2022-12-23T14:51:51.393Z,1.65
2022-12-23T14:54:36.613Z,1.40
2022-12-23T14:57:16.159Z,1.10
2022-12-23T15:00:02.855Z,2.10
2022-12-23T15:02:35.282Z,0.50
2022-12-23T15:05:02.621Z,0.85
2022-12-23T15:07:42.969Z,0.40
2022-12-23T15:10:17.791Z,0.98
2022-12-23T15:12:49.234Z,2.70
2022-12-23T15:15:18.643Z,0.90
2022-12-23T15:17:45.570Z,1.85
2022-12-23T15:20:14.894Z,1.65
2022-12-23T15:22:43.958Z,3.30
2022-12-23T15:25:34.671Z,1.52
2022-12-23T15:28:03.240Z,2.47
2022-12-23T15:30:34.056Z,1.25
2022-12-23T15:33:06.407Z,1.55
2022-12-23T15:35:43.005Z,1.75
2022-12-23T15:38:14.650Z,1.50
2022-12-23T15:40:41.345Z,0.85
2022-12-23T15:43:20.110Z,1.42
2022-12-23T15:45:47.106Z,0.80
2022-12-23T15:48:29.737Z,1.08
2022-12-23T15:51:00.714Z,1.52
2022-12-23T15:53:37.147Z,2.08
2022-12-23T15:56:26.110Z,1.83
2022-12-23T15:58:54.798Z,1.58
2022-12-23T16:01:22.427Z,1.23
2022-12-23T16:04:09.227Z,1.40
2022-12-23T16:06:36.617Z,1.80
2022-12-23T16:09:07.703Z,0.52
2022-12-23T16:12:15.647Z,0.82
2022-12-23T16:14:49.967Z,1.30
2022-12-23T16:17:23.756Z,0.60
2022-12-23T16:19:56.052Z,0.75
2022-12-23T16:22:30.720Z,1.88
2022-12-23T16:25:24.605Z,0.63
2022-12-23T16:28:07.555Z,0.65
2022-12-23T16:30:36.985Z,1.20
2022-12-23T16:33:07.024Z,1.85
2022-12-23T16:35:39.565Z,1.10
2022-12-23T16:38:24.471Z,1.17
2022-12-23T16:40:53.635Z,1.17
2022-12-23T16:43:21.421Z,2.72
2022-12-23T16:45:52.905Z,1.23
2022-12-23T16:48:34.093Z,1.60
2022-12-23T16:51:04.407Z,2.70
2022-12-23T16:53:31.948Z,0.90
2022-12-23T16:56:01.190Z,1.50
2022-12-23T16:58:29.686Z,2.33
2022-12-23T17:00:56.879Z,1.95
2022-12-23T17:03:24.024Z,1.50
2022-12-23T17:05:51.039Z,3.72
2022-12-23T17:08:18.481Z,2.88
2022-12-23T17:10:45.881Z,1.83
2022-12-23T17:13:16.566Z,1.83
2022-12-23T17:15:43.152Z,2.53
2022-12-23T17:18:14.564Z,2.80
2022-12-23T17:20:43.591Z,1.55
2022-12-23T17:23:26.701Z,3.88
2022-12-23T17:25:54.095Z,2.03
2022-12-23T17:28:21.874Z,2.42
2022-12-23T17:30:55.352Z,2.65
2022-12-23T17:33:27.087Z,4.05
2022-12-23T17:35:55.908Z,3.22
2022-12-23T17:38:23.937Z,4.00
2022-12-23T17:40:51.548Z,3.30
2022-12-23T17:43:19.729Z,5.03
2022-12-23T17:45:47.601Z,3.65
2022-12-23T17:48:21.541Z,4.38
2022-12-23T17:50:51.176Z,5.63
2022-12-23T17:53:20.220Z,4.10
2022-12-23T17:55:47.710Z,2.95
2022-12-23T17:58:15.772Z,4.90
2022-12-23T18:00:42.783Z,6.10
2022-12-23T18:03:22.882Z,5.85
2022-12-23T18:05:54.302Z,3.22
2022-12-23T18:08:26.454Z,5.97
2022-12-23T18:10:53.664Z,5.13
2022-12-23T18:13:21.749Z,6.25
2022-12-23T18:15:50.206Z,3.97
2022-12-23T18:18:27.264Z,5.20
2022-12-23T18:20:58.598Z,6.85
2022-12-23T18:23:31.553Z,6.65
2022-12-23T18:25:59.797Z,6.45
2022-12-23T18:28:27.464Z,6.82
2022-12-23T18:30:56.287Z,8.55
2022-12-23T18:33:24.267Z,8.15
2022-12-23T18:35:51.120Z,7.65
2022-12-23T18:38:18.510Z,6.25
2022-12-23T18:40:45.648Z,6.40
2022-12-23T18:43:23.616Z,10.77
2022-12-23T18:45:53.147Z,9.18
2022-12-23T18:48:20.828Z,6.60
2022-12-23T18:50:47.881Z,9.13
2022-12-23T18:53:23.398Z,6.22
2022-12-23T18:55:51.818Z,6.22
2022-12-23T18:58:18.962Z,10.85
2022-12-23T19:00:46.624Z,8.63
2022-12-23T19:03:31.718Z,7.60
2022-12-23T19:06:06.761Z,8.15
2022-12-23T19:08:35.609Z,6.88
2022-12-23T19:11:02.892Z,10.27
2022-12-23T19:13:29.667Z,10.18
2022-12-23T19:15:57.121Z,8.90
2022-12-23T19:18:24.727Z,9.38
2022-12-23T19:20:52.534Z,12.27
2022-12-23T19:23:19.975Z,8.10
2022-12-23T19:25:54.448Z,11.00
2022-12-23T19:28:22.793Z,6.85
2022-12-23T19:30:50.207Z,8.90
2022-12-23T19:33:18.084Z,5.75
2022-12-23T19:35:45.464Z,8.95
2022-12-23T19:38:13.030Z,11.55
2022-12-23T19:40:41.250Z,11.60
2022-12-23T19:43:08.907Z,12.30
2022-12-23T19:45:36.198Z,7.97
2022-12-23T19:48:03.699Z,9.07
2022-12-23T19:50:31.324Z,8.82
2022-12-23T19:52:58.644Z,8.90
2022-12-23T19:55:25.494Z,7.35
2022-12-23T19:57:52.293Z,12.63
2022-12-23T20:00:19.746Z,9.77
2022-12-23T20:02:47.363Z,8.48
2022-12-23T20:05:17.685Z,8.57
2022-12-23T20:07:44.910Z,8.40
2022-12-23T20:10:11.973Z,7.95
2022-12-23T20:12:39.947Z,9.02
2022-12-23T20:15:08.386Z,6.07
2022-12-23T20:17:35.810Z,7.70
2022-12-23T20:20:02.934Z,8.45
2022-12-23T20:22:30.042Z,8.02
2022-12-23T20:24:58.960Z,10.57
2022-12-23T20:27:28.286Z,11.23
2022-12-23T20:29:56.617Z,6.55
2022-12-23T20:32:25.282Z,7.40
2022-12-23T20:34:52.824Z,7.35
2022-12-23T20:37:20.310Z,8.93
2022-12-23T20:39:48.700Z,9.05
2022-12-23T20:42:16.228Z,7.68
2022-12-23T20:44:43.961Z,8.38
2022-12-23T20:47:10.681Z,10.32
2022-12-23T20:49:37.427Z,9.20
2022-12-23T20:52:04.139Z,8.63
2022-12-23T20:54:33.728Z,10.23
2022-12-23T20:57:01.977Z,8.85
2022-12-23T20:59:28.820Z,7.50
2022-12-23T21:01:55.745Z,11.18
2022-12-23T21:04:22.696Z,7.78
2022-12-23T21:06:49.468Z,7.47
2022-12-23T21:09:16.419Z,12.63
2022-12-23T21:11:45.234Z,10.18
2022-12-23T21:14:13.224Z,8.07
2022-12-23T21:16:41.015Z,8.73
2022-12-23T21:19:09.195Z,8.40
2022-12-23T21:21:36.005Z,8.82
2022-12-23T21:24:04.330Z,10.95
2022-12-23T21:26:33.617Z,9.00
2022-12-23T21:29:01.987Z,8.93
2022-12-23T21:31:30.770Z,9.53
2022-12-23T21:33:58.606Z,8.57
2022-12-23T21:36:29.343Z,9.85
2022-12-23T21:38:55.970Z,9.63
2022-12-23T21:41:25.786Z,10.88
2022-12-23T21:43:52.371Z,6.57
2022-12-23T21:46:21.527Z,11.80
2022-12-23T21:48:49.504Z,14.32
2022-12-23T21:51:20.435Z,14.60
2022-12-23T21:53:49.949Z,8.67
2022-12-23T21:56:24.729Z,12.63
2022-12-23T21:58:59.721Z,7.80
2022-12-23T22:01:26.922Z,9.23
2022-12-23T22:03:54.807Z,11.68
2022-12-23T22:06:30.307Z,9.53
2022-12-23T22:08:57.632Z,10.97
2022-12-23T22:11:29.699Z,12.47
2022-12-23T22:13:58.024Z,8.63
2022-12-23T22:16:26.336Z,8.97
2022-12-23T22:18:53.588Z,12.90
2022-12-23T22:21:22.934Z,9.75
2022-12-23T22:23:50.801Z,10.60
2022-12-23T22:26:24.725Z,8.82
2022-12-23T22:28:54.127Z,9.75
2022-12-23T22:31:29.615Z,10.52
2022-12-23T22:33:57.062Z,8.77
2022-12-23T22:36:23.764Z,7.87
2022-12-23T22:38:55.449Z,8.65
2022-12-23T22:41:23.105Z,9.32
2022-12-23T22:43:50.115Z,7.28
2022-12-23T22:46:18.432Z,10.35
2022-12-23T22:48:46.903Z,7.70
2022-12-23T22:51:19.638Z,7.47
2022-12-23T22:53:46.754Z,7.57
2022-12-23T22:56:15.168Z,7.33
2022-12-23T22:58:42.811Z,8.00
2022-12-23T23:01:31.150Z,8.25
2022-12-23T23:03:59.739Z,8.03
2022-12-23T23:06:38.302Z,9.03
2022-12-23T23:09:13.526Z,9.53
2022-12-23T23:11:41.078Z,6.43
2022-12-23T23:14:07.951Z,8.73
2022-12-23T23:16:34.716Z,9.00
2022-12-23T23:19:01.716Z,8.77
2022-12-23T23:21:28.503Z,6.68
2022-12-23T23:23:55.165Z,8.63
2022-12-23T23:26:26.675Z,7.67
2022-12-23T23:28:54.086Z,6.07
2022-12-23T23:34:09.590Z,8.83
2022-12-23T23:36:36.731Z,7.87
2022-12-23T23:39:03.944Z,8.10
2022-12-23T23:41:31.956Z,7.40
2022-12-23T23:43:58.709Z,9.17
2022-12-23T23:46:25.384Z,8.00
2022-12-23T23:48:52.694Z,9.47
2022-12-23T23:51:20.519Z,7.50
2022-12-23T23:53:48.064Z,9.20
2022-12-23T23:56:21.948Z,9.70
2022-12-23T23:58:52.361Z,7.20
